createdAt,value
2022-09-23T00:05:52.663Z,14.36
2022-09-23T00:25:52.124Z,14.36
2022-09-23T00:45:52.644Z,14.36
2022-09-23T01:45:52.462Z,14.36
2022-09-23T02:05:52.587Z,14.35
2022-09-23T02:25:52.580Z,14.35
2022-09-23T02:45:51.514Z,14.35
2022-09-23T03:05:52.434Z,14.34
2022-09-23T03:45:52.040Z,14.33
2022-09-23T04:05:52.523Z,14.32
2022-09-23T04:25:51.756Z,14.32
2022-09-23T04:45:52.516Z,14.31
2022-09-23T05:05:52.530Z,14.3
2022-09-23T05:25:52.490Z,14.29
2022-09-23T05:45:52.486Z,14.29
2022-09-23T06:05:52.676Z,14.28
2022-09-23T06:25:52.473Z,14.28
2022-09-23T06:45:52.457Z,14.27
2022-09-23T07:05:52.441Z,14.27
2022-09-23T07:25:52.429Z,14.27
2022-09-23T07:45:52.567Z,14.27
2022-09-23T08:05:51.857Z,14.26
2022-09-23T08:45:52.359Z,14.25
2022-09-23T09:05:54.296Z,14.24
2022-09-23T09:25:52.271Z,14.23
2022-09-23T09:45:56.742Z,14.22
2022-09-23T10:05:51.389Z,14.21
2022-09-23T10:25:52.122Z,14.2
2022-09-23T10:45:52.204Z,14.19
2022-09-23T11:05:52.081Z,14.18
2022-09-23T11:25:52.062Z,14.18
2022-09-23T11:45:52.099Z,14.18
2022-09-23T12:05:52.125Z,14.18
2022-09-23T12:25:51.966Z,14.17
2022-09-23T12:45:51.988Z,14.17
2022-09-23T13:05:51.916Z,14.17
2022-09-23T13:25:51.893Z,14.17
2022-09-23T13:45:51.922Z,14.17
2022-09-23T14:25:51.283Z,14.17
2022-09-23T14:45:51.841Z,14.17
2022-09-23T15:05:51.755Z,14.17
2022-09-23T15:25:51.721Z,14.17
2022-09-23T15:45:51.743Z,14.17
2022-09-23T16:05:51.668Z,14.17
2022-09-23T16:45:51.533Z,14.17
2022-09-23T17:05:51.585Z,14.18
2022-09-23T17:25:51.567Z,14.18
2022-09-23T17:45:50.830Z,14.18
2022-09-23T18:25:50.731Z,14.18
2022-09-23T19:45:51.404Z,14.2
2022-09-23T20:25:51.364Z,14.21
2022-09-23T20:45:51.249Z,14.21
2022-09-23T21:05:58.310Z,14.22
2022-09-23T21:25:51.337Z,14.22
2022-09-23T21:45:51.320Z,14.23
2022-09-23T22:05:51.123Z,14.23
2022-09-23T23:05:50.673Z,14.24
2022-09-23T23:25:51.170Z,14.24
